createdAt,value
2023-04-15T00:01:41.964Z,98431.47
2023-04-15T00:04:48.150Z,98423.03
2023-04-15T00:07:50.114Z,98430.75
2023-04-15T00:10:52.052Z,98434.13
2023-04-15T00:13:54.573Z,98434.03
2023-04-15T00:16:57.466Z,98422.44
2023-04-15T00:20:00.050Z,98432.31
2023-04-15T00:23:04.397Z,98431.81
2023-04-15T00:26:06.374Z,98423.63
2023-04-15T00:29:08.327Z,98427.72
2023-04-15T00:32:11.452Z,98430.59
2023-04-15T00:35:16.612Z,98432.44
2023-04-15T00:38:18.658Z,98426.00
2023-04-15T00:41:21.007Z,98430.41
2023-04-15T00:44:23.182Z,98430.28
2023-04-15T00:47:26.490Z,98425.75
2023-04-15T00:50:28.447Z,98425.47
2023-04-15T00:53:30.622Z,98424.03
2023-04-15T00:56:36.069Z,98422.59
2023-04-15T00:59:38.342Z,98415.94
2023-04-15T01:02:40.521Z,98411.44
2023-04-15T01:05:42.914Z,98412.63
2023-04-15T01:08:48.507Z,98409.88
2023-04-15T01:11:51.806Z,98412.34
2023-04-15T01:14:55.197Z,98410.38
2023-04-15T01:18:00.027Z,98416.88
2023-04-15T01:21:05.100Z,98414.47
2023-04-15T01:24:11.089Z,98415.16
2023-04-15T01:27:12.943Z,98412.56
2023-04-15T01:30:15.692Z,98413.78
2023-04-15T01:33:17.669Z,98411.34
2023-04-15T01:36:21.281Z,98414.19
2023-04-15T01:39:23.532Z,98419.94
2023-04-15T01:42:26.465Z,98417.88
2023-04-15T01:45:28.821Z,98424.16
2023-04-15T01:48:31.321Z,98425.31
2023-04-15T01:51:33.244Z,98425.31
2023-04-15T01:54:35.181Z,98419.47
2023-04-15T01:57:37.195Z,98415.34
2023-04-15T02:00:39.174Z,98415.16
2023-04-15T02:03:41.086Z,98410.53
2023-04-15T02:06:44.091Z,98405.41
2023-04-15T02:09:47.708Z,98403.34
2023-04-15T02:12:49.753Z,98412.47
2023-04-15T02:15:52.800Z,98406.34
2023-04-15T02:18:55.876Z,98408.69
2023-04-15T02:21:57.785Z,98416.06
2023-04-15T02:24:59.624Z,98408.28
2023-04-15T02:28:01.480Z,98407.25
2023-04-15T02:31:07.291Z,98407.47
2023-04-15T02:34:09.228Z,98410.22
2023-04-15T02:37:12.647Z,98406.00
2023-04-15T02:40:14.637Z,98404.56
2023-04-15T02:43:19.913Z,98405.50
2023-04-15T02:46:23.024Z,98429.19
2023-04-15T02:49:26.230Z,98426.31
2023-04-15T02:52:28.150Z,98425.47
2023-04-15T02:55:30.133Z,98424.03
2023-04-15T02:58:32.132Z,98414.91
2023-04-15T03:01:34.098Z,98421.38
2023-04-15T03:04:36.021Z,98418.81
2023-04-15T03:07:40.452Z,98416.03
2023-04-15T03:10:42.773Z,98408.00
2023-04-15T03:13:44.900Z,98414.53
2023-04-15T03:16:59.708Z,98415.75
2023-04-15T03:20:05.048Z,98409.25
2023-04-15T03:23:07.475Z,98396.53
2023-04-15T03:26:09.457Z,98411.91
2023-04-15T03:29:11.704Z,98413.34
2023-04-15T03:32:15.610Z,98414.16
2023-04-15T03:35:18.423Z,98418.03
2023-04-15T03:38:20.690Z,98422.06
2023-04-15T03:41:22.703Z,98429.53
2023-04-15T03:44:24.579Z,98434.72
2023-04-15T03:47:26.660Z,98430.81
2023-04-15T03:50:28.647Z,98443.72
2023-04-15T03:53:30.736Z,98438.34
2023-04-15T03:56:32.603Z,98452.81
2023-04-15T03:59:34.420Z,98442.66
2023-04-15T04:02:36.848Z,98449.31
2023-04-15T04:05:41.505Z,98441.09
2023-04-15T04:08:43.699Z,98444.69
2023-04-15T04:11:46.232Z,98450.66
2023-04-15T04:14:48.476Z,98452.56
2023-04-15T04:17:50.938Z,98448.16
2023-04-15T04:20:53.055Z,98453.78
2023-04-15T04:23:55.135Z,98458.47
2023-04-15T04:26:57.366Z,98458.38
2023-04-15T04:29:59.406Z,98448.50
2023-04-15T04:33:01.505Z,98452.75
2023-04-15T04:36:03.605Z,98449.97
2023-04-15T04:39:05.443Z,98452.09
2023-04-15T04:42:07.384Z,98458.66
2023-04-15T04:45:09.552Z,98451.97
2023-04-15T04:48:11.646Z,98456.97
2023-04-15T04:51:13.724Z,98461.50
2023-04-15T04:54:16.335Z,98462.50
2023-04-15T04:57:18.146Z,98467.22
2023-04-15T05:00:20.523Z,98464.81
2023-04-15T05:03:22.586Z,98463.59
2023-04-15T05:06:24.722Z,98468.59
2023-04-15T05:09:26.716Z,98461.63
2023-04-15T05:12:28.694Z,98457.47
2023-04-15T05:15:30.630Z,98466.63
2023-04-15T05:18:32.558Z,98460.56
2023-04-15T05:21:34.449Z,98462.41
2023-04-15T05:24:36.489Z,98467.78
2023-04-15T05:27:38.408Z,98474.03
2023-04-15T05:30:40.508Z,98481.22
2023-04-15T05:33:42.946Z,98471.91
2023-04-15T05:36:44.750Z,98478.06
2023-04-15T05:39:47.051Z,98479.31
2023-04-15T05:42:49.222Z,98472.94
2023-04-15T05:45:51.277Z,98477.13
2023-04-15T05:48:54.698Z,98480.94
2023-04-15T05:51:57.954Z,98483.91
2023-04-15T05:54:59.870Z,98488.22
2023-04-15T05:58:01.909Z,98485.03
2023-04-15T06:01:04.252Z,98488.44
2023-04-15T06:04:06.841Z,98491.72
2023-04-15T06:07:08.798Z,98496.34
2023-04-15T06:10:11.027Z,98496.53
2023-04-15T06:13:13.198Z,98492.22
2023-04-15T06:16:15.119Z,98489.56
2023-04-15T06:19:17.050Z,98493.16
2023-04-15T06:22:18.951Z,98500.13
2023-04-15T06:25:20.852Z,98496.13
2023-04-15T06:28:22.780Z,98498.75
2023-04-15T06:31:24.750Z,98508.38
2023-04-15T06:34:27.477Z,98507.72
2023-04-15T06:37:29.460Z,98510.75
2023-04-15T06:40:31.661Z,98508.50
2023-04-15T06:43:33.667Z,98513.41
2023-04-15T06:46:35.480Z,98518.81
2023-04-15T06:49:37.734Z,98518.44
2023-04-15T06:52:39.722Z,98530.59
2023-04-15T06:55:42.117Z,98531.09
2023-04-15T06:58:44.346Z,98529.69
2023-04-15T07:01:46.578Z,98538.56
2023-04-15T07:04:48.981Z,98532.84
2023-04-15T07:07:51.391Z,98534.03
2023-04-15T07:10:54.192Z,98541.97
2023-04-15T07:13:57.754Z,98538.38
2023-04-15T07:17:00.732Z,98552.06
2023-04-15T07:20:04.998Z,98553.44
2023-04-15T07:23:07.108Z,98550.09
2023-04-15T07:26:09.178Z,98559.56
2023-04-15T07:29:12.003Z,98562.28
2023-04-15T07:32:13.964Z,98568.09
2023-04-15T07:35:16.252Z,98567.75
2023-04-15T07:38:18.088Z,98565.44
2023-04-15T07:41:21.083Z,98565.13
2023-04-15T07:44:23.254Z,98570.03
2023-04-15T07:47:25.859Z,98567.94
2023-04-15T07:50:28.795Z,98572.63
2023-04-15T07:53:30.703Z,98579.22
2023-04-15T07:56:32.718Z,98571.16
2023-04-15T07:59:34.724Z,98569.53
2023-04-15T08:02:39.063Z,98571.50
2023-04-15T08:05:42.623Z,98577.97
2023-04-15T08:08:44.565Z,98582.66
2023-04-15T08:11:49.090Z,98575.50
2023-04-15T08:14:51.380Z,98581.63
2023-04-15T08:17:53.341Z,98589.69
2023-04-15T08:20:55.392Z,98596.50
2023-04-15T08:23:57.468Z,98592.03
2023-04-15T08:26:59.979Z,98588.41
2023-04-15T08:30:04.685Z,98589.69
2023-04-15T08:33:07.066Z,98588.63
2023-04-15T08:36:09.362Z,98585.88
2023-04-15T08:39:11.375Z,98589.50
2023-04-15T08:42:17.447Z,98596.50
2023-04-15T08:45:20.194Z,98590.38
2023-04-15T08:48:24.566Z,98589.03
2023-04-15T08:51:27.721Z,98590.25
2023-04-15T08:54:30.613Z,98586.28
2023-04-15T08:57:33.532Z,98592.38
2023-04-15T09:00:36.109Z,98583.16
2023-04-15T09:03:38.637Z,98581.22
2023-04-15T09:06:41.470Z,98582.94
2023-04-15T09:09:43.516Z,98584.78
2023-04-15T09:12:45.501Z,98575.13
2023-04-15T09:15:48.477Z,98578.00
2023-04-15T09:18:51.473Z,98574.16
2023-04-15T09:21:57.256Z,98571.31
2023-04-15T09:25:01.487Z,98572.75
2023-04-15T09:28:03.496Z,98577.31
2023-04-15T09:31:05.493Z,98583.06
2023-04-15T09:34:07.559Z,98579.22
2023-04-15T09:37:10.982Z,98580.72
2023-04-15T09:40:13.319Z,98575.81
2023-04-15T09:43:16.776Z,98572.84
2023-04-15T09:46:19.124Z,98570.91
2023-04-15T09:49:21.202Z,98566.94
2023-04-15T09:52:23.742Z,98567.19
2023-04-15T09:55:25.598Z,98557.28
2023-04-15T09:58:33.378Z,98558.53
2023-04-15T10:01:36.798Z,98556.41
2023-04-15T10:04:41.800Z,98552.91
2023-04-15T10:07:44.321Z,98551.75
2023-04-15T10:10:48.084Z,98549.94
2023-04-15T10:13:51.193Z,98546.66
2023-04-15T10:16:56.520Z,98549.13
2023-04-15T10:20:01.013Z,98548.91
2023-04-15T10:23:03.599Z,98539.63
2023-04-15T10:26:06.200Z,98532.59
2023-04-15T10:29:09.665Z,98528.28
2023-04-15T10:32:12.162Z,98528.22
2023-04-15T10:35:14.444Z,98523.31
2023-04-15T10:38:38.999Z,98526.81
2023-04-15T10:41:40.929Z,98523.91
2023-04-15T10:44:51.934Z,98522.66
2023-04-15T10:47:58.141Z,98523.38
2023-04-15T10:51:05.163Z,98534.91
2023-04-15T10:54:13.913Z,98516.47
2023-04-15T10:57:23.790Z,98517.88
2023-04-15T11:00:28.950Z,98523.94
2023-04-15T11:03:43.293Z,98522.44
2023-04-15T11:06:45.907Z,98525.09
2023-04-15T11:09:47.863Z,98532.84
2023-04-15T11:12:52.945Z,98541.38
2023-04-15T11:15:58.411Z,98552.75
2023-04-15T11:19:01.719Z,98549.63
2023-04-15T11:22:10.804Z,98553.16
2023-04-15T11:25:25.327Z,98561.00
2023-04-15T11:28:31.943Z,98573.16
2023-04-15T11:31:34.211Z,98578.59
2023-04-15T11:34:36.465Z,98586.84
2023-04-15T11:37:38.356Z,98588.28
2023-04-15T11:40:41.791Z,98594.41
2023-04-15T11:43:45.110Z,98601.50
2023-04-15T11:46:47.055Z,98600.44
2023-04-15T11:49:48.995Z,98614.63
2023-04-15T11:52:57.186Z,98616.09
2023-04-15T11:55:59.132Z,98624.91
2023-04-15T11:59:01.219Z,98628.69
2023-04-15T12:02:12.987Z,98633.00
2023-04-15T12:05:14.988Z,98623.84
2023-04-15T12:08:17.027Z,98624.47
2023-04-15T12:11:20.475Z,98632.19
2023-04-15T12:14:25.328Z,98630.59
2023-04-15T12:17:28.154Z,98620.06
2023-04-15T12:20:31.386Z,98627.47
2023-04-15T12:23:38.533Z,98622.13
2023-04-15T12:26:44.254Z,98620.34
2023-04-15T12:29:46.238Z,98614.16
2023-04-15T12:32:48.725Z,98621.25
2023-04-15T12:35:50.791Z,98615.09
2023-04-15T12:38:53.066Z,98616.03
2023-04-15T12:41:55.700Z,98607.00
2023-04-15T12:44:57.574Z,98603.22
2023-04-15T12:47:59.522Z,98607.66
2023-04-15T12:51:02.225Z,98620.94
2023-04-15T12:54:05.789Z,98609.41
2023-04-15T12:57:08.230Z,98611.28
2023-04-15T13:00:10.854Z,98615.69
2023-04-15T13:03:12.951Z,98620.72
2023-04-15T13:06:14.932Z,98630.22
2023-04-15T13:09:16.950Z,98632.28
2023-04-15T13:12:18.855Z,98640.81
2023-04-15T13:15:22.613Z,98647.16
2023-04-15T13:18:24.745Z,98651.41
2023-04-15T13:21:27.362Z,98656.16
2023-04-15T13:24:29.342Z,98657.50
2023-04-15T13:27:31.603Z,98671.25
2023-04-15T13:30:33.568Z,98668.19
2023-04-15T13:33:35.426Z,98670.06
2023-04-15T13:36:37.261Z,98674.41
2023-04-15T13:39:39.194Z,98669.72
2023-04-15T13:42:42.884Z,98673.88
2023-04-15T13:45:46.613Z,98675.28
2023-04-15T13:48:48.672Z,98667.78
2023-04-15T13:51:51.346Z,98675.47
2023-04-15T13:55:18.263Z,98676.19
2023-04-15T13:58:15.515Z,98662.34
2023-04-15T14:01:17.611Z,98669.38
2023-04-15T14:04:19.881Z,98668.78
2023-04-15T14:07:21.990Z,98665.09
2023-04-15T14:10:23.921Z,98672.78
2023-04-15T14:13:25.946Z,98672.25
2023-04-15T14:16:28.113Z,98666.84
2023-04-15T14:19:31.695Z,98674.28
2023-04-15T14:22:33.620Z,98677.56
2023-04-15T14:25:35.527Z,98679.72
2023-04-15T14:28:39.132Z,98687.94
2023-04-15T14:31:41.068Z,98702.63
2023-04-15T14:34:43.724Z,98702.66
2023-04-15T14:37:45.690Z,98719.75
2023-04-15T14:40:48.116Z,98720.47
2023-04-15T14:43:49.990Z,98725.59
2023-04-15T14:46:52.325Z,98716.91
2023-04-15T14:49:54.470Z,98724.28
2023-04-15T14:52:56.624Z,98724.28
2023-04-15T14:55:58.976Z,98727.91
2023-04-15T14:59:01.257Z,98733.88
2023-04-15T15:02:03.939Z,98732.84
2023-04-15T15:05:06.432Z,98730.28
2023-04-15T15:08:09.228Z,98725.44
2023-04-15T15:11:11.156Z,98732.28
2023-04-15T15:14:13.209Z,98731.19
2023-04-15T15:17:15.504Z,98739.81
2023-04-15T15:20:19.335Z,98740.38
2023-04-15T15:23:21.381Z,98729.69
2023-04-15T15:26:23.411Z,98737.72
2023-04-15T15:29:25.723Z,98732.09
2023-04-15T15:32:27.875Z,98733.94
2023-04-15T15:35:29.848Z,98734.75
2023-04-15T15:38:31.914Z,98736.59
2023-04-15T15:41:34.502Z,98739.06
2023-04-15T15:44:38.445Z,98744.28
2023-04-15T15:47:41.442Z,98743.09
2023-04-15T15:50:45.886Z,98742.63
2023-04-15T15:53:48.013Z,98747.88
2023-04-15T15:56:50.154Z,98741.81
2023-04-15T16:00:04.762Z,98748.81
2023-04-15T16:03:12.197Z,98739.22
2023-04-15T16:06:14.230Z,98741.09
2023-04-15T16:09:16.192Z,98748.53
2023-04-15T16:12:18.168Z,98744.47
2023-04-15T16:15:20.170Z,98751.25
2023-04-15T16:18:22.291Z,98758.06
2023-04-15T16:21:31.618Z,98759.47
2023-04-15T16:24:34.923Z,98766.03
2023-04-15T16:27:54.145Z,98765.47
2023-04-15T16:30:59.423Z,98773.16
2023-04-15T16:34:02.317Z,98772.50
2023-04-15T16:37:04.578Z,98777.22
2023-04-15T16:40:07.428Z,98771.56
2023-04-15T16:43:11.393Z,98779.91
2023-04-15T16:46:14.732Z,98785.38
2023-04-15T16:49:16.673Z,98780.88
2023-04-15T16:52:18.654Z,98777.97
2023-04-15T16:55:20.992Z,98778.72
2023-04-15T16:58:23.233Z,98781.66
2023-04-15T17:01:25.437Z,98789.91
2023-04-15T17:04:28.514Z,98784.34
2023-04-15T17:07:30.621Z,98778.53
2023-04-15T17:10:32.582Z,98778.25
2023-04-15T17:13:34.735Z,98784.94
2023-04-15T17:16:36.749Z,98789.31
2023-04-15T17:19:39.495Z,98799.22
2023-04-15T17:22:41.594Z,98797.88
2023-04-15T17:25:43.615Z,98808.81
2023-04-15T17:28:46.061Z,98809.31
2023-04-15T17:31:48.086Z,98817.25
2023-04-15T17:34:51.352Z,98819.31
2023-04-15T17:37:53.690Z,98827.75
2023-04-15T17:40:55.701Z,98829.41
2023-04-15T17:43:57.656Z,98831.34
2023-04-15T17:46:59.874Z,98839.97
2023-04-15T17:50:02.218Z,98836.78
2023-04-15T17:53:04.472Z,98844.81
2023-04-15T17:56:06.775Z,98838.25
2023-04-15T17:59:08.924Z,98848.13
2023-04-15T18:02:11.728Z,98851.41
2023-04-15T18:05:14.714Z,98849.13
2023-04-15T18:08:17.222Z,98864.88
2023-04-15T18:11:19.678Z,98869.91
2023-04-15T18:14:33.524Z,98875.44
2023-04-15T18:17:37.069Z,98888.38
2023-04-15T18:20:39.223Z,98884.34
2023-04-15T18:23:41.306Z,98895.19
2023-04-15T18:26:43.419Z,98899.72
2023-04-15T18:29:47.080Z,98900.91
2023-04-15T18:32:49.596Z,98898.91
2023-04-15T18:35:53.015Z,98899.13
2023-04-15T18:38:54.992Z,98904.78
2023-04-15T18:41:57.444Z,98913.41
2023-04-15T18:44:59.603Z,98906.91
2023-04-15T18:48:03.013Z,98910.75
2023-04-15T18:51:04.946Z,98923.41
2023-04-15T18:54:07.334Z,98921.97
2023-04-15T18:57:09.446Z,98933.78
2023-04-15T19:00:12.727Z,98929.75
2023-04-15T19:03:14.992Z,98935.38
2023-04-15T19:06:17.458Z,98939.50
2023-04-15T19:09:19.656Z,98952.44
2023-04-15T19:12:21.827Z,98947.41
2023-04-15T19:15:23.929Z,98950.81
2023-04-15T19:18:26.979Z,98950.97
2023-04-15T19:21:30.582Z,98952.75
2023-04-15T19:24:33.469Z,98950.19
2023-04-15T19:27:35.659Z,98954.47
2023-04-15T19:30:37.794Z,98957.88
2023-04-15T19:33:39.684Z,98953.47
2023-04-15T19:36:42.289Z,98962.09
2023-04-15T19:39:44.680Z,98964.47
2023-04-15T19:42:47.163Z,98967.78
2023-04-15T19:45:52.401Z,98967.84
2023-04-15T19:48:55.366Z,98963.09
2023-04-15T19:51:57.793Z,98970.00
2023-04-15T19:54:59.962Z,98974.34
2023-04-15T19:58:01.875Z,98973.44
2023-04-15T20:01:04.554Z,98975.88
2023-04-15T20:04:07.040Z,98978.88
2023-04-15T20:07:10.171Z,98982.66
2023-04-15T20:10:13.314Z,98985.31
2023-04-15T20:13:15.705Z,98983.84
2023-04-15T20:16:17.788Z,98982.53
2023-04-15T20:19:19.968Z,98988.34
2023-04-15T20:22:21.973Z,98996.03
2023-04-15T20:25:24.049Z,98991.66
2023-04-15T20:28:27.549Z,99005.84
2023-04-15T20:31:29.983Z,99004.97
2023-04-15T20:34:32.347Z,99007.06
2023-04-15T20:37:34.709Z,99013.66
2023-04-15T20:40:36.908Z,99015.97
2023-04-15T20:43:39.242Z,99007.97
2023-04-15T20:46:41.179Z,99019.97
2023-04-15T20:49:43.168Z,99026.69
2023-04-15T20:52:45.652Z,99023.47
2023-04-15T20:55:47.886Z,99033.38
2023-04-15T20:58:49.781Z,99037.03
2023-04-15T21:01:51.928Z,99035.84
2023-04-15T21:04:53.848Z,99041.13
2023-04-15T21:07:56.082Z,99049.34
2023-04-15T21:10:58.047Z,99051.38
2023-04-15T21:13:59.984Z,99043.03
2023-04-15T21:17:11.143Z,99052.47
2023-04-15T21:20:13.467Z,99048.84
2023-04-15T21:23:15.449Z,99052.06
2023-04-15T21:26:18.353Z,99059.97
2023-04-15T21:29:20.551Z,99058.13
2023-04-15T21:32:22.525Z,99074.22
2023-04-15T21:35:24.439Z,99073.06
2023-04-15T21:38:26.372Z,99071.06
2023-04-15T21:41:28.317Z,99074.50
2023-04-15T21:44:30.283Z,99076.34
2023-04-15T21:47:32.209Z,99086.84
2023-04-15T21:51:00.824Z,99083.53
2023-04-15T21:54:02.903Z,99085.25
2023-04-15T21:57:04.711Z,99084.16
2023-04-15T22:00:08.509Z,99080.13
2023-04-15T22:03:10.461Z,99089.59
2023-04-15T22:06:13.818Z,99081.31
2023-04-15T22:09:15.993Z,99081.97
2023-04-15T22:12:18.004Z,99080.22
2023-04-15T22:15:19.892Z,99088.75
2023-04-15T22:18:23.183Z,99086.94
2023-04-15T22:21:25.204Z,99085.72
2023-04-15T22:24:34.403Z,99081.41
2023-04-15T22:27:42.243Z,99086.06
2023-04-15T22:30:44.202Z,99088.81
2023-04-15T22:33:46.169Z,99089.53
2023-04-15T22:36:49.022Z,99088.53
2023-04-15T22:39:51.888Z,99082.69
2023-04-15T22:42:53.786Z,99091.22
2023-04-15T22:45:56.676Z,99098.34
2023-04-15T22:48:58.738Z,99086.44
2023-04-15T22:52:01.053Z,99095.03
2023-04-15T22:55:03.726Z,99088.41
2023-04-15T22:58:06.003Z,99093.28
2023-04-15T23:01:08.398Z,99098.78
2023-04-15T23:04:26.631Z,99100.25
2023-04-15T23:07:29.926Z,99104.22
2023-04-15T23:10:31.872Z,99102.75
2023-04-15T23:13:35.370Z,99108.09
2023-04-15T23:16:37.252Z,99106.13
2023-04-15T23:19:39.355Z,99104.88
2023-04-15T23:22:43.095Z,99100.53
2023-04-15T23:25:45.135Z,99104.44
2023-04-15T23:28:47.029Z,99098.56
2023-04-15T23:31:49.367Z,99105.91
2023-04-15T23:34:52.286Z,99105.66
2023-04-15T23:37:54.423Z,99109.59
2023-04-15T23:40:56.411Z,99107.22
2023-04-15T23:43:58.365Z,99106.63
2023-04-15T23:47:00.492Z,99103.56
2023-04-15T23:50:02.449Z,99097.78
2023-04-15T23:53:04.589Z,99102.91
2023-04-15T23:56:06.757Z,99095.47
2023-04-15T23:59:09.144Z,99099.31
